createdAt,value
2019-02-10T00:01:01.570Z,5.20
2019-02-10T00:03:30.799Z,5.20
2019-02-10T00:06:02.264Z,5.20
2019-02-10T00:08:31.402Z,5.10
2019-02-10T00:11:00.591Z,5.10
2019-02-10T00:13:34.731Z,5.10
2019-02-10T00:16:07.092Z,5.10
2019-02-10T00:18:36.317Z,5.20
2019-02-10T00:21:05.460Z,5.20
2019-02-10T00:23:34.714Z,5.20
2019-02-10T00:26:03.935Z,5.30
2019-02-10T00:28:33.139Z,5.30
2019-02-10T00:31:02.363Z,5.30
2019-02-10T00:33:31.610Z,5.30
2019-02-10T00:36:00.815Z,5.30
2019-02-10T00:38:30.265Z,5.20
2019-02-10T00:40:59.514Z,5.20
2019-02-10T00:43:28.685Z,5.20
2019-02-10T00:45:57.835Z,5.10
2019-02-10T00:48:27.085Z,5.10
2019-02-10T00:50:56.236Z,5.10
2019-02-10T00:53:25.487Z,5.10
2019-02-10T00:55:54.642Z,5.00
2019-02-10T00:58:23.940Z,5.00
2019-02-10T01:00:53.206Z,5.00
2019-02-10T01:03:22.528Z,5.00
2019-02-10T01:05:51.761Z,5.00
2019-02-10T01:08:20.935Z,5.00
2019-02-10T01:10:50.159Z,5.00
2019-02-10T01:13:19.407Z,5.00
2019-02-10T01:15:48.658Z,5.00
2019-02-10T01:18:17.879Z,4.90
2019-02-10T01:20:47.128Z,5.00
2019-02-10T01:23:16.583Z,5.00
2019-02-10T01:25:45.841Z,5.10
2019-02-10T01:28:14.990Z,5.10
2019-02-10T01:30:44.242Z,5.20
2019-02-10T01:33:13.478Z,5.30
2019-02-10T01:35:42.735Z,5.30
2019-02-10T01:38:11.955Z,5.30
2019-02-10T01:40:41.135Z,5.40
2019-02-10T01:43:10.420Z,5.40
2019-02-10T01:45:39.736Z,5.40
2019-02-10T01:48:08.884Z,5.40
2019-02-10T01:50:38.182Z,5.40
2019-02-10T01:53:07.427Z,5.30
2019-02-10T01:55:36.792Z,5.30
2019-02-10T01:58:06.065Z,5.30
2019-02-10T02:00:35.318Z,5.30
2019-02-10T02:03:04.890Z,5.20
2019-02-10T02:05:34.138Z,5.20
2019-02-10T02:08:03.683Z,5.10
2019-02-10T02:10:32.943Z,5.10
2019-02-10T02:13:02.103Z,5.10
2019-02-10T02:15:31.268Z,5.10
2019-02-10T02:18:00.510Z,5.10
2019-02-10T02:20:29.670Z,5.20
2019-02-10T02:22:58.944Z,5.20
2019-02-10T02:25:28.256Z,5.20
2019-02-10T02:27:57.429Z,5.20
2019-02-10T02:30:26.687Z,5.20
2019-02-10T02:32:55.940Z,5.30
2019-02-10T02:35:25.234Z,5.30
2019-02-10T02:37:54.512Z,5.30
2019-02-10T02:40:23.814Z,5.30
2019-02-10T02:42:53.079Z,5.30
2019-02-10T02:45:22.310Z,5.40
2019-02-10T02:47:51.629Z,5.40
2019-02-10T02:50:20.855Z,5.40
2019-02-10T02:52:50.053Z,5.40
2019-02-10T02:55:19.208Z,5.40
2019-02-10T02:57:48.497Z,5.40
2019-02-10T03:00:17.735Z,5.40
2019-02-10T03:02:46.958Z,5.40
2019-02-10T03:05:16.184Z,5.40
2019-02-10T03:07:45.530Z,5.40
2019-02-10T03:10:14.745Z,5.40
2019-02-10T03:12:44.006Z,5.40
2019-02-10T03:15:13.232Z,5.30
2019-02-10T03:17:42.414Z,5.30
2019-02-10T03:20:11.662Z,5.30
2019-02-10T03:22:40.839Z,5.30
2019-02-10T03:25:10.083Z,5.30
2019-02-10T03:27:39.257Z,5.30
2019-02-10T03:30:08.716Z,5.30
2019-02-10T03:32:38.047Z,5.30
2019-02-10T03:35:07.595Z,5.30
2019-02-10T03:37:36.785Z,5.30
2019-02-10T03:40:06.559Z,5.30
2019-02-10T03:42:35.870Z,5.30
2019-02-10T03:45:05.704Z,5.40
2019-02-10T03:47:34.879Z,5.40
2019-02-10T03:50:04.239Z,5.50
2019-02-10T03:52:33.406Z,5.50
2019-02-10T03:55:02.719Z,5.50
2019-02-10T03:57:32.008Z,5.50
2019-02-10T04:00:01.231Z,5.50
2019-02-10T04:02:30.402Z,5.50
2019-02-10T04:04:59.649Z,5.50
2019-02-10T04:07:35.801Z,5.50
2019-02-10T04:09:59.909Z,5.50
2019-02-10T04:12:29.130Z,5.50
2019-02-10T04:14:58.404Z,5.50
2019-02-10T04:17:27.707Z,5.50
2019-02-10T04:19:56.886Z,5.50
2019-02-10T04:22:26.126Z,5.50
2019-02-10T04:24:55.295Z,5.60
2019-02-10T04:27:24.466Z,5.60
2019-02-10T04:29:53.718Z,5.60
2019-02-10T04:32:22.877Z,5.60
2019-02-10T04:34:52.054Z,5.60
2019-02-10T04:37:21.273Z,5.60
2019-02-10T04:39:50.488Z,5.60
2019-02-10T04:42:19.633Z,5.60
2019-02-10T04:44:49.030Z,5.60
2019-02-10T04:47:18.254Z,5.70
2019-02-10T04:49:47.435Z,5.70
2019-02-10T04:52:16.663Z,5.70
2019-02-10T04:54:45.903Z,5.70
2019-02-10T04:57:15.131Z,5.70
2019-02-10T04:59:44.306Z,5.70
2019-02-10T05:02:13.490Z,5.70
2019-02-10T05:04:42.767Z,5.70
2019-02-10T05:07:12.035Z,5.70
2019-02-10T05:09:41.222Z,5.70
2019-02-10T05:12:10.469Z,5.70
2019-02-10T05:14:39.794Z,5.70
2019-02-10T05:17:08.958Z,5.70
2019-02-10T05:19:38.214Z,5.70
2019-02-10T05:22:07.437Z,5.70
2019-02-10T05:24:36.706Z,5.70
2019-02-10T05:27:05.930Z,5.70
2019-02-10T05:29:35.175Z,5.70
2019-02-10T05:32:04.326Z,5.70
2019-02-10T05:34:33.494Z,5.70
2019-02-10T05:37:02.730Z,5.70
2019-02-10T05:39:32.003Z,5.70
2019-02-10T05:42:01.302Z,5.80
2019-02-10T05:44:30.436Z,5.80
2019-02-10T05:46:59.718Z,5.80
2019-02-10T05:49:28.942Z,5.80
2019-02-10T05:51:58.123Z,5.80
2019-02-10T05:54:27.360Z,5.90
2019-02-10T05:56:56.692Z,5.90
2019-02-10T05:59:25.923Z,5.90
2019-02-10T06:02:27.713Z,5.80
2019-02-10T06:04:59.220Z,5.80
2019-02-10T06:07:28.447Z,5.80
2019-02-10T06:09:57.702Z,5.90
2019-02-10T06:12:26.850Z,5.90
2019-02-10T06:14:55.985Z,5.90
2019-02-10T06:17:25.158Z,5.90
2019-02-10T06:19:54.382Z,5.90
2019-02-10T06:22:23.651Z,6.00
2019-02-10T06:24:52.864Z,6.00
2019-02-10T06:27:22.303Z,6.00
2019-02-10T06:29:51.531Z,6.00
2019-02-10T06:32:20.891Z,6.00
2019-02-10T06:34:50.118Z,6.00
2019-02-10T06:37:19.366Z,6.10
2019-02-10T06:39:48.679Z,6.10
2019-02-10T06:42:18.118Z,6.10
2019-02-10T06:44:47.450Z,6.10
2019-02-10T06:47:16.704Z,6.10
2019-02-10T06:49:45.971Z,6.10
2019-02-10T06:52:15.246Z,6.10
2019-02-10T06:54:53.134Z,6.20
2019-02-10T06:57:24.135Z,6.20
2019-02-10T06:59:58.269Z,6.10
2019-02-10T07:02:45.877Z,6.20
2019-02-10T07:05:15.605Z,6.20
2019-02-10T07:07:44.863Z,6.20
2019-02-10T07:10:14.119Z,6.20
2019-02-10T07:12:50.017Z,6.30
2019-02-10T07:15:55.030Z,6.30
2019-02-10T07:19:00.394Z,6.30
2019-02-10T07:21:42.018Z,6.30
2019-02-10T07:25:07.593Z,6.30
2019-02-10T07:27:36.775Z,6.40
2019-02-10T07:30:55.057Z,6.40
2019-02-10T07:34:23.831Z,6.50
2019-02-10T07:37:18.406Z,6.50
2019-02-10T07:40:27.374Z,6.50
2019-02-10T07:43:29.874Z,6.50
2019-02-10T07:46:25.123Z,6.50
2019-02-10T07:49:35.179Z,6.60
2019-02-10T07:52:26.779Z,6.60
2019-02-10T07:55:34.018Z,6.50
2019-02-10T07:58:42.578Z,6.60
2019-02-10T08:01:49.095Z,6.60
2019-02-10T08:04:57.032Z,6.70
2019-02-10T08:07:43.873Z,6.70
2019-02-10T08:10:53.554Z,6.70
2019-02-10T08:13:44.822Z,6.70
2019-02-10T08:16:43.641Z,6.70
2019-02-10T08:19:59.260Z,6.80
2019-02-10T08:22:52.670Z,6.90
2019-02-10T08:25:56.117Z,6.90
2019-02-10T08:29:17.421Z,7.00
2019-02-10T08:32:39.646Z,6.90
2019-02-10T08:35:55.157Z,7.00
2019-02-10T08:39:05.258Z,7.00
2019-02-10T08:41:58.455Z,7.00
2019-02-10T08:44:59.182Z,7.10
2019-02-10T08:47:59.953Z,7.00
2019-02-10T08:51:15.036Z,7.10
2019-02-10T08:53:46.353Z,7.10
2019-02-10T08:56:15.562Z,7.10
2019-02-10T08:58:44.849Z,7.10
2019-02-10T09:01:14.035Z,7.10
2019-02-10T09:03:43.282Z,7.10
2019-02-10T09:06:12.430Z,7.10
2019-02-10T09:08:41.742Z,7.10
2019-02-10T09:11:10.968Z,7.10
2019-02-10T09:13:40.148Z,7.10
2019-02-10T09:16:09.581Z,7.20
2019-02-10T09:18:39.130Z,7.20
2019-02-10T09:21:08.358Z,7.20
2019-02-10T09:23:37.526Z,7.20
2019-02-10T09:26:06.759Z,7.20
2019-02-10T09:28:35.934Z,7.20
2019-02-10T09:31:05.162Z,7.20
2019-02-10T09:33:34.330Z,7.10
2019-02-10T09:36:03.600Z,7.20
2019-02-10T09:38:32.887Z,7.20
2019-02-10T09:41:02.280Z,7.20
2019-02-10T09:43:31.571Z,7.20
2019-02-10T09:46:00.772Z,7.20
2019-02-10T09:48:29.995Z,7.20
2019-02-10T09:50:59.250Z,7.30
2019-02-10T09:53:28.462Z,7.20
2019-02-10T09:55:57.706Z,7.20
2019-02-10T09:58:26.925Z,7.20
2019-02-10T10:00:56.566Z,7.30
2019-02-10T10:03:25.811Z,7.30
2019-02-10T10:05:55.114Z,7.30
2019-02-10T10:08:24.259Z,7.30
2019-02-10T10:10:53.438Z,7.30
2019-02-10T10:13:22.670Z,7.30
2019-02-10T10:15:51.918Z,7.20
2019-02-10T10:18:21.141Z,7.30
2019-02-10T10:20:50.462Z,7.30
2019-02-10T10:23:19.687Z,7.30
2019-02-10T10:25:48.960Z,7.30
2019-02-10T10:28:18.249Z,7.30
2019-02-10T10:30:47.434Z,7.30
2019-02-10T10:33:16.580Z,7.40
2019-02-10T10:35:45.828Z,7.40
2019-02-10T10:38:15.051Z,7.40
2019-02-10T10:40:44.235Z,7.40
2019-02-10T10:43:13.454Z,7.30
2019-02-10T10:45:42.721Z,7.40
2019-02-10T10:48:12.018Z,7.40
2019-02-10T10:50:41.266Z,7.40
2019-02-10T10:53:10.417Z,7.40
2019-02-10T10:55:39.602Z,7.50
2019-02-10T10:58:09.017Z,7.50
2019-02-10T11:00:38.200Z,7.50
2019-02-10T11:03:07.379Z,7.50
2019-02-10T11:05:36.609Z,7.60
2019-02-10T11:08:05.912Z,7.60
2019-02-10T11:10:35.075Z,7.60
2019-02-10T11:13:04.325Z,7.60
2019-02-10T11:15:33.551Z,7.60
2019-02-10T11:18:02.913Z,7.60
2019-02-10T11:20:32.202Z,7.60
2019-02-10T11:23:01.447Z,7.60
2019-02-10T11:25:30.664Z,7.70
2019-02-10T11:27:59.901Z,7.70
2019-02-10T11:30:29.179Z,7.70
2019-02-10T11:32:58.429Z,7.60
2019-02-10T11:35:27.590Z,7.60
2019-02-10T11:37:56.851Z,7.60
2019-02-10T11:40:26.058Z,7.60
2019-02-10T11:42:55.323Z,7.60
2019-02-10T11:45:24.710Z,7.70
2019-02-10T11:47:53.886Z,7.70
2019-02-10T11:50:23.030Z,7.70
2019-02-10T11:52:52.197Z,7.70
2019-02-10T11:55:21.353Z,7.70
2019-02-10T11:57:50.670Z,7.70
2019-02-10T12:00:19.894Z,7.70
2019-02-10T12:02:49.119Z,7.70
2019-02-10T12:05:18.265Z,7.70
2019-02-10T12:07:47.446Z,7.80
2019-02-10T12:10:16.623Z,7.80
2019-02-10T12:12:46.714Z,7.80
2019-02-10T12:15:15.980Z,7.80
2019-02-10T12:17:45.305Z,7.80
2019-02-10T12:20:14.671Z,7.80
2019-02-10T12:22:49.967Z,7.90
2019-02-10T12:25:14.876Z,7.90
2019-02-10T12:27:44.054Z,7.90
2019-02-10T12:30:13.782Z,7.90
2019-02-10T12:32:43.027Z,7.90
2019-02-10T12:35:12.313Z,8.00
2019-02-10T12:37:41.777Z,8.00
2019-02-10T12:40:11.240Z,8.00
2019-02-10T12:42:40.858Z,8.00
2019-02-10T12:45:10.218Z,8.10
2019-02-10T12:47:39.414Z,8.10
2019-02-10T12:50:09.772Z,8.10
2019-02-10T12:52:39.026Z,8.10
2019-02-10T12:55:08.414Z,8.10
2019-02-10T12:57:37.715Z,8.10
2019-02-10T13:00:09.536Z,8.20
2019-02-10T13:02:38.709Z,8.20
2019-02-10T13:05:07.995Z,8.20
2019-02-10T13:07:37.223Z,8.30
2019-02-10T13:10:08.424Z,8.30
2019-02-10T13:12:37.829Z,8.30
2019-02-10T13:15:08.372Z,8.30
2019-02-10T13:17:37.757Z,8.30
2019-02-10T13:20:08.399Z,8.40
2019-02-10T13:22:37.928Z,8.40
2019-02-10T13:25:07.643Z,8.50
2019-02-10T13:27:36.866Z,8.50
2019-02-10T13:30:07.255Z,8.60
2019-02-10T13:32:36.694Z,8.50
2019-02-10T13:35:06.331Z,8.50
2019-02-10T13:37:35.734Z,8.50
2019-02-10T13:40:06.727Z,8.50
2019-02-10T13:42:35.870Z,8.50
2019-02-10T13:45:05.774Z,8.60
2019-02-10T13:47:35.057Z,8.60
2019-02-10T13:50:04.928Z,8.60
2019-02-10T13:52:34.137Z,8.60
2019-02-10T13:55:03.398Z,8.60
2019-02-10T13:57:32.614Z,8.60
2019-02-10T14:00:01.918Z,8.60
2019-02-10T14:02:31.183Z,8.70
2019-02-10T14:05:00.568Z,8.80
2019-02-10T14:07:29.787Z,8.80
2019-02-10T14:09:59.202Z,8.80
2019-02-10T14:12:28.542Z,8.90
2019-02-10T14:14:57.800Z,8.90
2019-02-10T14:17:27.171Z,8.90
2019-02-10T14:19:56.436Z,8.90
2019-02-10T14:22:25.653Z,8.90
2019-02-10T14:24:54.884Z,9.00
2019-02-10T14:27:24.214Z,9.00
2019-02-10T14:29:53.462Z,9.00
2019-02-10T14:32:22.771Z,9.00
2019-02-10T14:34:52.014Z,8.90
2019-02-10T14:37:21.244Z,8.90
2019-02-10T14:39:50.420Z,8.90
2019-02-10T14:42:19.656Z,8.90
2019-02-10T14:44:48.905Z,8.90
2019-02-10T14:47:18.061Z,9.00
2019-02-10T14:49:47.311Z,9.00
2019-02-10T14:52:16.450Z,9.10
2019-02-10T14:54:45.624Z,9.10
2019-02-10T14:57:14.776Z,9.00
2019-02-10T14:59:44.027Z,9.00
2019-02-10T15:02:13.205Z,9.10
2019-02-10T15:04:42.491Z,9.20
2019-02-10T15:07:11.630Z,9.20
2019-02-10T15:09:40.851Z,9.20
2019-02-10T15:12:10.113Z,9.10
2019-02-10T15:14:40.419Z,9.10
2019-02-10T15:17:09.614Z,9.00
2019-02-10T15:19:38.843Z,8.90
2019-02-10T15:22:08.042Z,8.80
2019-02-10T15:24:37.274Z,8.80
2019-02-10T15:27:06.543Z,8.80
2019-02-10T15:29:35.803Z,8.80
2019-02-10T15:32:05.157Z,8.80
2019-02-10T15:34:36.037Z,8.70
2019-02-10T15:37:05.222Z,8.70
2019-02-10T15:39:34.370Z,8.70
2019-02-10T15:42:09.211Z,8.60
2019-02-10T15:44:34.598Z,8.60
2019-02-10T15:47:03.854Z,8.50
2019-02-10T15:49:33.164Z,8.50
2019-02-10T15:52:02.548Z,8.40
2019-02-10T15:54:32.351Z,8.40
2019-02-10T15:57:01.647Z,8.40
2019-02-10T15:59:30.882Z,8.30
2019-02-10T16:02:00.226Z,8.30
2019-02-10T16:04:29.451Z,8.20
2019-02-10T16:06:58.708Z,8.20
2019-02-10T16:09:27.931Z,8.20
2019-02-10T16:11:57.191Z,8.20
2019-02-10T16:14:26.445Z,8.20
2019-02-10T16:16:55.623Z,8.10
2019-02-10T16:19:24.843Z,8.10
2019-02-10T16:21:54.091Z,8.10
2019-02-10T16:24:23.318Z,8.10
2019-02-10T16:26:52.598Z,8.10
2019-02-10T16:29:21.890Z,8.00
2019-02-10T16:31:51.142Z,8.00
2019-02-10T16:34:20.362Z,8.00
2019-02-10T16:36:49.615Z,7.90
2019-02-10T16:39:18.750Z,8.00
2019-02-10T16:41:47.999Z,7.90
2019-02-10T16:44:17.297Z,7.90
2019-02-10T16:46:46.635Z,7.90
2019-02-10T16:49:15.863Z,7.80
2019-02-10T16:51:45.017Z,7.80
2019-02-10T16:54:14.235Z,7.70
2019-02-10T16:56:43.474Z,7.70
2019-02-10T16:59:12.746Z,7.70
2019-02-10T17:01:41.986Z,7.60
2019-02-10T17:04:11.246Z,7.60
2019-02-10T17:06:40.554Z,7.60
2019-02-10T17:09:09.976Z,7.60
2019-02-10T17:11:39.145Z,7.60
2019-02-10T17:14:08.315Z,7.60
2019-02-10T17:16:37.467Z,7.60
2019-02-10T17:19:06.645Z,7.50
2019-02-10T17:21:35.867Z,7.50
2019-02-10T17:24:05.163Z,7.40
2019-02-10T17:26:34.392Z,7.40
2019-02-10T17:29:03.773Z,7.40
2019-02-10T17:31:33.062Z,7.40
2019-02-10T17:34:02.538Z,7.40
2019-02-10T17:36:31.762Z,7.30
2019-02-10T17:39:00.978Z,7.40
2019-02-10T17:41:42.425Z,7.30
2019-02-10T17:44:11.596Z,7.30
2019-02-10T17:46:40.830Z,7.30
2019-02-10T17:49:09.998Z,7.40
2019-02-10T17:51:39.223Z,7.40
2019-02-10T17:54:08.499Z,7.30
2019-02-10T17:56:37.731Z,7.30
2019-02-10T17:59:06.986Z,7.20
2019-02-10T18:01:36.262Z,7.20
2019-02-10T18:04:05.544Z,7.20
2019-02-10T18:06:34.777Z,7.10
2019-02-10T18:09:05.559Z,7.10
2019-02-10T18:11:34.778Z,7.20
2019-02-10T18:14:07.355Z,7.10
2019-02-10T18:16:49.826Z,7.10
2019-02-10T18:19:35.110Z,7.10
2019-02-10T18:22:11.655Z,7.10
2019-02-10T18:24:55.022Z,7.00
2019-02-10T18:27:35.746Z,7.00
2019-02-10T18:30:43.190Z,7.00
2019-02-10T18:33:34.165Z,7.00
2019-02-10T18:36:17.070Z,7.00
2019-02-10T18:38:57.253Z,7.00
2019-02-10T18:41:39.191Z,6.90
2019-02-10T18:44:25.922Z,7.00
2019-02-10T18:47:17.115Z,6.90
2019-02-10T18:50:08.175Z,6.90
2019-02-10T18:52:44.719Z,6.90
2019-02-10T18:55:35.687Z,6.90
2019-02-10T18:58:32.738Z,6.90
2019-02-10T19:01:19.018Z,6.90
2019-02-10T19:04:09.977Z,6.90
2019-02-10T19:06:58.352Z,6.90
2019-02-10T19:09:49.538Z,6.80
2019-02-10T19:12:40.954Z,6.80
2019-02-10T19:15:27.703Z,6.80
2019-02-10T19:18:24.904Z,6.70
2019-02-10T19:21:16.403Z,6.70
2019-02-10T19:23:54.651Z,6.70
2019-02-10T19:26:33.801Z,6.70
2019-02-10T19:29:25.703Z,6.60
2019-02-10T19:32:05.682Z,6.70
2019-02-10T19:34:56.926Z,6.60
2019-02-10T19:37:47.948Z,6.60
2019-02-10T19:40:39.210Z,6.60
2019-02-10T19:43:27.434Z,6.60
2019-02-10T19:46:27.810Z,6.70
2019-02-10T19:49:09.251Z,6.60
2019-02-10T19:51:49.144Z,6.50
2019-02-10T19:54:34.270Z,6.50
2019-02-10T19:57:31.494Z,6.50
2019-02-10T20:00:25.687Z,6.50
2019-02-10T20:03:13.889Z,6.50
2019-02-10T20:05:58.214Z,6.50
2019-02-10T20:08:52.678Z,6.50
2019-02-10T20:11:31.019Z,6.40
2019-02-10T20:14:15.035Z,6.40
2019-02-10T20:17:12.311Z,6.30
2019-02-10T20:20:04.450Z,6.30
2019-02-10T20:22:50.203Z,6.30
2019-02-10T20:25:37.968Z,6.30
2019-02-10T20:28:25.159Z,6.30
2019-02-10T20:31:06.295Z,6.30
2019-02-10T20:33:49.751Z,6.20
2019-02-10T20:36:25.437Z,6.20
2019-02-10T20:39:15.808Z,6.20
2019-02-10T20:41:49.739Z,6.20
2019-02-10T20:44:37.943Z,6.20
2019-02-10T20:47:32.333Z,6.20
2019-02-10T20:50:17.846Z,6.20
2019-02-10T20:53:00.130Z,6.20
2019-02-10T20:55:39.183Z,6.20
2019-02-10T20:58:36.438Z,6.20
2019-02-10T21:01:13.719Z,6.20
2019-02-10T21:04:00.539Z,6.20
2019-02-10T21:06:46.297Z,6.20
2019-02-10T21:09:49.823Z,6.10
2019-02-10T21:12:32.535Z,6.00
2019-02-10T21:15:29.558Z,6.10
2019-02-10T21:18:06.327Z,6.00
2019-02-10T21:21:01.873Z,6.00
2019-02-10T21:23:49.038Z,6.00
2019-02-10T21:26:41.129Z,5.90
2019-02-10T21:29:19.823Z,5.90
2019-02-10T21:32:23.176Z,5.90
2019-02-10T21:35:17.409Z,5.80
2019-02-10T21:37:52.667Z,5.80
2019-02-10T21:40:40.846Z,5.80
2019-02-10T21:43:16.449Z,5.80
2019-02-10T21:46:07.515Z,5.70
2019-02-10T21:48:45.846Z,5.70
2019-02-10T21:51:15.077Z,5.70
2019-02-10T21:53:44.303Z,5.70
2019-02-10T21:56:13.578Z,5.70
2019-02-10T21:58:42.804Z,5.60
2019-02-10T22:01:11.982Z,5.60
2019-02-10T22:03:41.230Z,5.60
2019-02-10T22:06:10.546Z,5.70
2019-02-10T22:08:39.806Z,5.70
2019-02-10T22:11:09.022Z,5.70
2019-02-10T22:13:38.267Z,5.70
2019-02-10T22:16:07.578Z,5.70
2019-02-10T22:18:36.746Z,5.60
2019-02-10T22:21:05.902Z,5.60
2019-02-10T22:23:35.079Z,5.50
2019-02-10T22:26:04.302Z,5.50
2019-02-10T22:28:33.649Z,5.50
2019-02-10T22:31:02.812Z,5.50
2019-02-10T22:33:32.129Z,5.40
2019-02-10T22:36:01.279Z,5.40
2019-02-10T22:38:30.558Z,5.40
2019-02-10T22:40:59.782Z,5.40
2019-02-10T22:43:29.019Z,5.40
2019-02-10T22:45:58.348Z,5.40
2019-02-10T22:48:27.667Z,5.30
2019-02-10T22:50:56.814Z,5.40
2019-02-10T22:53:25.999Z,5.30
2019-02-10T22:55:55.235Z,5.20
2019-02-10T22:58:24.479Z,5.20
2019-02-10T23:01:02.585Z,5.20
2019-02-10T23:03:31.866Z,5.10
2019-02-10T23:06:01.149Z,5.10
2019-02-10T23:08:30.433Z,5.10
2019-02-10T23:10:59.676Z,5.10
2019-02-10T23:13:28.954Z,5.10
2019-02-10T23:15:58.101Z,5.00
2019-02-10T23:18:27.250Z,5.10
2019-02-10T23:20:56.429Z,5.10
2019-02-10T23:23:25.651Z,5.10
2019-02-10T23:25:54.825Z,5.10
2019-02-10T23:28:24.127Z,5.00
2019-02-10T23:30:53.302Z,5.00
2019-02-10T23:33:22.446Z,5.00
2019-02-10T23:35:51.717Z,5.00
2019-02-10T23:38:20.942Z,4.90
2019-02-10T23:40:50.118Z,5.00
2019-02-10T23:43:19.270Z,4.90
2019-02-10T23:45:48.519Z,4.90
2019-02-10T23:48:17.762Z,4.90
2019-02-10T23:50:46.959Z,4.90
2019-02-10T23:53:16.199Z,4.90
2019-02-10T23:55:45.460Z,4.90
2019-02-10T23:58:14.747Z,4.90
